sensor_id;sensor_type;location;lat;lon;timestamp;pressure;altitude;pressure_sealevel;temperature;humidity
55079;BME280;55187;49.496;6.010;2022-10-16T00:02:15;97159.50;;;10.89;100.00
55079;BME280;55187;49.496;6.010;2022-10-16T00:04:42;97157.91;;;10.95;100.00
55079;BME280;55187;49.496;6.010;2022-10-16T00:07:08;97188.41;;;10.84;100.00
55079;BME280;55187;49.496;6.010;2022-10-16T00:09:34;97167.88;;;11.00;100.00
55079;BME280;55187;49.496;6.010;2022-10-16T00:12:01;97175.00;;;10.99;100.00
55079;BME280;55187;49.496;6.010;2022-10-16T00:14:27;97185.59;;;10.99;100.00
55079;BME280;55187;49.496;6.010;2022-10-16T00:16:53;97185.41;;;11.07;100.00
55079;BME280;55187;49.496;6.010;2022-10-16T00:19:20;97180.75;;;11.09;100.00
55079;BME280;55187;49.496;6.010;2022-10-16T00:21:46;97180.94;;;11.08;100.00
55079;BME280;55187;49.496;6.010;2022-10-16T00:24:24;97173.59;;;11.03;100.00
55079;BME280;55187;49.496;6.010;2022-10-16T00:26:51;97169.31;;;11.02;100.00
55079;BME280;55187;49.496;6.010;2022-10-16T00:29:17;97166.25;;;11.05;100.00
55079;BME280;55187;49.496;6.010;2022-10-16T00:31:43;97170.31;;;11.01;100.00
55079;BME280;55187;49.496;6.010;2022-10-16T00:34:10;97178.06;;;10.96;100.00
55079;BME280;55187;49.496;6.010;2022-10-16T00:36:36;97170.28;;;10.88;100.00
55079;BME280;55187;49.496;6.010;2022-10-16T00:39:03;97164.16;;;10.81;100.00
55079;BME280;55187;49.496;6.010;2022-10-16T00:41:30;97158.81;;;10.74;100.00
55079;BME280;55187;49.496;6.010;2022-10-16T00:43:59;97158.59;;;10.69;100.00
55079;BME280;55187;49.496;6.010;2022-10-16T00:46:37;97161.25;;;10.69;100.00
55079;BME280;55187;49.496;6.010;2022-10-16T00:49:07;97165.56;;;10.70;100.00
55079;BME280;55187;49.496;6.010;2022-10-16T00:51:38;97175.31;;;10.69;100.00
55079;BME280;55187;49.496;6.010;2022-10-16T00:54:10;97174.50;;;10.69;100.00
55079;BME280;55187;49.496;6.010;2022-10-16T00:56:38;97190.19;;;10.70;100.00
55079;BME280;55187;49.496;6.010;2022-10-16T00:59:11;97184.66;;;10.65;100.00
55079;BME280;55187;49.496;6.010;2022-10-16T01:01:41;97181.78;;;10.60;100.00
55079;BME280;55187;49.496;6.010;2022-10-16T01:04:07;97187.09;;;10.67;100.00
55079;BME280;55187;49.496;6.010;2022-10-16T01:06:51;97173.47;;;10.63;100.00
55079;BME280;55187;49.496;6.010;2022-10-16T01:09:35;97185.25;;;10.61;100.00
55079;BME280;55187;49.496;6.010;2022-10-16T01:12:22;97188.66;;;10.48;100.00
55079;BME280;55187;49.496;6.010;2022-10-16T01:14:58;97183.25;;;10.63;100.00
55079;BME280;55187;49.496;6.010;2022-10-16T01:17:33;97192.94;;;10.56;100.00
55079;BME280;55187;49.496;6.010;2022-10-16T01:20:10;97200.13;;;10.62;100.00
55079;BME280;55187;49.496;6.010;2022-10-16T01:22:48;97205.59;;;10.60;100.00
55079;BME280;55187;49.496;6.010;2022-10-16T01:28:13;97200.28;;;10.60;100.00
55079;BME280;55187;49.496;6.010;2022-10-16T01:30:42;97200.91;;;10.62;100.00
55079;BME280;55187;49.496;6.010;2022-10-16T01:33:16;97208.41;;;10.52;100.00
55079;BME280;55187;49.496;6.010;2022-10-16T01:35:53;97206.53;;;10.46;100.00
55079;BME280;55187;49.496;6.010;2022-10-16T01:38:34;97198.66;;;10.53;100.00
55079;BME280;55187;49.496;6.010;2022-10-16T01:41:13;97198.25;;;10.56;100.00
55079;BME280;55187;49.496;6.010;2022-10-16T01:43:57;97201.31;;;10.59;100.00
55079;BME280;55187;49.496;6.010;2022-10-16T01:46:26;97198.28;;;10.62;100.00
55079;BME280;55187;49.496;6.010;2022-10-16T01:48:55;97188.69;;;10.55;100.00
55079;BME280;55187;49.496;6.010;2022-10-16T01:51:23;97195.81;;;10.54;100.00
55079;BME280;55187;49.496;6.010;2022-10-16T01:53:54;97203.72;;;10.47;100.00
55079;BME280;55187;49.496;6.010;2022-10-16T01:56:22;97211.47;;;10.56;100.00
55079;BME280;55187;49.496;6.010;2022-10-16T01:59:03;97212.06;;;10.51;100.00
55079;BME280;55187;49.496;6.010;2022-10-16T02:01:36;97203.34;;;10.57;100.00
55079;BME280;55187;49.496;6.010;2022-10-16T02:04:09;97193.19;;;10.61;100.00
55079;BME280;55187;49.496;6.010;2022-10-16T02:06:38;97217.81;;;10.61;100.00
55079;BME280;55187;49.496;6.010;2022-10-16T02:09:04;97208.22;;;10.60;100.00
55079;BME280;55187;49.496;6.010;2022-10-16T02:11:30;97198.88;;;10.58;100.00
55079;BME280;55187;49.496;6.010;2022-10-16T02:14:02;97206.19;;;10.56;100.00
55079;BME280;55187;49.496;6.010;2022-10-16T02:16:36;97191.34;;;10.55;100.00
55079;BME280;55187;49.496;6.010;2022-10-16T02:19:05;97188.06;;;10.53;100.00
55079;BME280;55187;49.496;6.010;2022-10-16T02:21:44;97188.44;;;10.43;100.00
55079;BME280;55187;49.496;6.010;2022-10-16T02:24:36;97183.34;;;10.48;100.00
55079;BME280;55187;49.496;6.010;2022-10-16T02:27:31;97197.41;;;10.48;100.00
55079;BME280;55187;49.496;6.010;2022-10-16T02:30:07;97192.94;;;10.49;100.00
55079;BME280;55187;49.496;6.010;2022-10-16T02:32:37;97195.19;;;10.52;100.00
55079;BME280;55187;49.496;6.010;2022-10-16T02:35:07;97188.03;;;10.46;100.00
55079;BME280;55187;49.496;6.010;2022-10-16T02:37:34;97187.44;;;10.50;100.00
55079;BME280;55187;49.496;6.010;2022-10-16T02:40:02;97210.88;;;10.54;100.00
55079;BME280;55187;49.496;6.010;2022-10-16T02:42:36;97201.72;;;10.56;100.00
55079;BME280;55187;49.496;6.010;2022-10-16T02:45:04;97207.13;;;10.41;100.00
55079;BME280;55187;49.496;6.010;2022-10-16T02:47:31;97209.03;;;10.54;100.00
55079;BME280;55187;49.496;6.010;2022-10-16T02:49:57;97216.75;;;10.49;100.00
55079;BME280;55187;49.496;6.010;2022-10-16T02:52:23;97215.59;;;10.58;100.00
55079;BME280;55187;49.496;6.010;2022-10-16T02:54:50;97210.88;;;10.60;100.00
55079;BME280;55187;49.496;6.010;2022-10-16T02:57:16;97219.66;;;10.61;100.00
55079;BME280;55187;49.496;6.010;2022-10-16T02:59:43;97203.78;;;10.61;100.00
55079;BME280;55187;49.496;6.010;2022-10-16T03:02:10;97206.22;;;10.62;100.00
55079;BME280;55187;49.496;6.010;2022-10-16T03:04:40;97207.06;;;10.63;100.00
55079;BME280;55187;49.496;6.010;2022-10-16T03:07:06;97211.09;;;10.59;100.00
55079;BME280;55187;49.496;6.010;2022-10-16T03:09:33;97211.91;;;10.59;100.00
55079;BME280;55187;49.496;6.010;2022-10-16T03:12:00;97203.94;;;10.53;100.00
55079;BME280;55187;49.496;6.010;2022-10-16T03:14:26;97195.41;;;10.57;100.00
55079;BME280;55187;49.496;6.010;2022-10-16T03:16:52;97204.75;;;10.53;100.00
55079;BME280;55187;49.496;6.010;2022-10-16T03:19:19;97201.50;;;10.58;100.00
55079;BME280;55187;49.496;6.010;2022-10-16T03:21:45;97213.31;;;10.55;100.00
55079;BME280;55187;49.496;6.010;2022-10-16T03:24:12;97217.16;;;10.53;100.00
55079;BME280;55187;49.496;6.010;2022-10-16T03:26:38;97222.91;;;10.56;100.00
55079;BME280;55187;49.496;6.010;2022-10-16T03:29:05;97216.97;;;10.54;100.00
55079;BME280;55187;49.496;6.010;2022-10-16T03:31:31;97215.59;;;10.58;100.00
55079;BME280;55187;49.496;6.010;2022-10-16T03:33:57;97223.13;;;10.61;100.00
55079;BME280;55187;49.496;6.010;2022-10-16T03:36:24;97225.13;;;10.59;100.00
55079;BME280;55187;49.496;6.010;2022-10-16T03:38:50;97222.09;;;10.62;100.00
55079;BME280;55187;49.496;6.010;2022-10-16T03:41:17;97232.50;;;10.64;100.00
55079;BME280;55187;49.496;6.010;2022-10-16T03:43:43;97213.16;;;10.63;100.00
55079;BME280;55187;49.496;6.010;2022-10-16T03:46:09;97218.03;;;10.66;100.00
55079;BME280;55187;49.496;6.010;2022-10-16T03:48:39;97214.16;;;10.62;100.00
55079;BME280;55187;49.496;6.010;2022-10-16T03:51:06;97214.78;;;10.64;100.00
55079;BME280;55187;49.496;6.010;2022-10-16T03:53:32;97202.94;;;10.60;100.00
55079;BME280;55187;49.496;6.010;2022-10-16T03:55:59;97218.81;;;10.60;100.00
55079;BME280;55187;49.496;6.010;2022-10-16T03:58:26;97210.69;;;10.62;100.00
55079;BME280;55187;49.496;6.010;2022-10-16T04:00:52;97218.03;;;10.66;100.00
55079;BME280;55187;49.496;6.010;2022-10-16T04:03:18;97217.19;;;10.59;100.00
55079;BME280;55187;49.496;6.010;2022-10-16T04:05:45;97222.09;;;10.62;100.00
55079;BME280;55187;49.496;6.010;2022-10-16T04:08:11;97219.41;;;10.56;100.00
55079;BME280;55187;49.496;6.010;2022-10-16T04:10:37;97232.63;;;10.56;100.00
55079;BME280;55187;49.496;6.010;2022-10-16T04:13:04;97228.22;;;10.69;100.00
55079;BME280;55187;49.496;6.010;2022-10-16T04:15:30;97232.91;;;10.61;100.00
55079;BME280;55187;49.496;6.010;2022-10-16T04:17:56;97231.19;;;10.53;100.00
55079;BME280;55187;49.496;6.010;2022-10-16T04:20:23;97240.38;;;10.57;100.00
55079;BME280;55187;49.496;6.010;2022-10-16T04:22:49;97238.19;;;10.61;100.00
55079;BME280;55187;49.496;6.010;2022-10-16T04:25:15;97246.09;;;10.54;100.00
55079;BME280;55187;49.496;6.010;2022-10-16T04:27:45;97248.72;;;10.54;100.00
55079;BME280;55187;49.496;6.010;2022-10-16T04:30:11;97245.13;;;10.68;100.00
55079;BME280;55187;49.496;6.010;2022-10-16T04:32:38;97252.84;;;10.63;100.00
55079;BME280;55187;49.496;6.010;2022-10-16T04:35:05;97259.53;;;10.59;100.00
55079;BME280;55187;49.496;6.010;2022-10-16T04:37:32;97254.91;;;10.68;100.00
55079;BME280;55187;49.496;6.010;2022-10-16T04:39:58;97255.28;;;10.65;100.00
55079;BME280;55187;49.496;6.010;2022-10-16T04:42:25;97265.63;;;10.60;100.00
55079;BME280;55187;49.496;6.010;2022-10-16T04:44:51;97263.03;;;10.66;100.00
55079;BME280;55187;49.496;6.010;2022-10-16T04:47:18;97248.56;;;10.62;100.00
55079;BME280;55187;49.496;6.010;2022-10-16T04:49:44;97265.84;;;10.58;100.00
55079;BME280;55187;49.496;6.010;2022-10-16T04:52:10;97259.31;;;10.54;100.00
55079;BME280;55187;49.496;6.010;2022-10-16T04:54:37;97263.56;;;10.55;100.00
55079;BME280;55187;49.496;6.010;2022-10-16T04:57:03;97269.91;;;10.54;100.00
55079;BME280;55187;49.496;6.010;2022-10-16T04:59:30;97268.72;;;10.63;100.00
55079;BME280;55187;49.496;6.010;2022-10-16T05:01:57;97273.97;;;10.57;100.00
55079;BME280;55187;49.496;6.010;2022-10-16T05:04:23;97274.38;;;10.54;100.00
55079;BME280;55187;49.496;6.010;2022-10-16T05:06:49;97262.00;;;10.61;100.00
55079;BME280;55187;49.496;6.010;2022-10-16T05:09:16;97255.22;;;10.52;100.00
55079;BME280;55187;49.496;6.010;2022-10-16T05:11:42;97257.03;;;10.51;100.00
55079;BME280;55187;49.496;6.010;2022-10-16T05:14:09;97262.59;;;10.56;100.00
55079;BME280;55187;49.496;6.010;2022-10-16T05:16:35;97270.09;;;10.53;100.00
55079;BME280;55187;49.496;6.010;2022-10-16T05:19:01;97275.19;;;10.54;100.00
55079;BME280;55187;49.496;6.010;2022-10-16T05:21:28;97267.91;;;10.63;100.00
55079;BME280;55187;49.496;6.010;2022-10-16T05:23:54;97275.81;;;10.56;100.00
55079;BME280;55187;49.496;6.010;2022-10-16T05:26:21;97273.81;;;10.65;100.00
55079;BME280;55187;49.496;6.010;2022-10-16T05:28:49;97277.88;;;10.61;100.00
55079;BME280;55187;49.496;6.010;2022-10-16T05:31:15;97277.25;;;10.59;100.00
55079;BME280;55187;49.496;6.010;2022-10-16T05:33:42;97274.59;;;10.59;100.00
55079;BME280;55187;49.496;6.010;2022-10-16T05:36:11;97275.81;;;10.56;100.00
55079;BME280;55187;49.496;6.010;2022-10-16T05:38:38;97277.63;;;10.56;100.00
55079;BME280;55187;49.496;6.010;2022-10-16T05:41:05;97287.22;;;10.57;100.00
55079;BME280;55187;49.496;6.010;2022-10-16T05:43:32;97287.03;;;10.58;100.00
55079;BME280;55187;49.496;6.010;2022-10-16T05:46:02;97283.34;;;10.59;100.00
55079;BME280;55187;49.496;6.010;2022-10-16T05:48:29;97275.22;;;10.61;100.00
55079;BME280;55187;49.496;6.010;2022-10-16T05:51:01;97279.31;;;10.63;100.00
55079;BME280;55187;49.496;6.010;2022-10-16T05:53:30;97279.31;;;10.63;100.00
55079;BME280;55187;49.496;6.010;2022-10-16T05:55:57;97287.03;;;10.58;100.00
55079;BME280;55187;49.496;6.010;2022-10-16T05:58:30;97289.66;;;10.58;100.00
55079;BME280;55187;49.496;6.010;2022-10-16T06:01:10;97294.56;;;10.61;100.00
55079;BME280;55187;49.496;6.010;2022-10-16T06:03:37;97296.41;;;10.61;100.00
55079;BME280;55187;49.496;6.010;2022-10-16T06:06:11;97293.53;;;10.62;100.00
55079;BME280;55187;49.496;6.010;2022-10-16T06:08:39;97300.47;;;10.63;100.00
55079;BME280;55187;49.496;6.010;2022-10-16T06:11:10;97304.97;;;10.63;100.00
55079;BME280;55187;49.496;6.010;2022-10-16T06:13:37;97302.09;;;10.64;100.00
55079;BME280;55187;49.496;6.010;2022-10-16T06:16:05;97303.97;;;10.70;100.00
55079;BME280;55187;49.496;6.010;2022-10-16T06:18:31;97315.56;;;10.69;100.00
55079;BME280;55187;49.496;6.010;2022-10-16T06:20:58;97317.41;;;10.69;100.00
55079;BME280;55187;49.496;6.010;2022-10-16T06:23:25;97327.00;;;10.70;100.00
55079;BME280;55187;49.496;6.010;2022-10-16T06:25:54;97320.03;;;10.69;100.00
55079;BME280;55187;49.496;6.010;2022-10-16T06:28:20;97320.50;;;10.73;100.00
55079;BME280;55187;49.496;6.010;2022-10-16T06:30:46;97319.06;;;10.70;100.00
55079;BME280;55187;49.496;6.010;2022-10-16T06:33:14;97312.34;;;10.74;100.00
55079;BME280;55187;49.496;6.010;2022-10-16T06:35:40;97321.13;;;10.75;100.00
55079;BME280;55187;49.496;6.010;2022-10-16T06:38:07;97319.47;;;10.74;100.00
55079;BME280;55187;49.496;6.010;2022-10-16T06:40:34;97326.19;;;10.76;100.00
55079;BME280;55187;49.496;6.010;2022-10-16T06:43:00;97336.19;;;10.81;100.00
55079;BME280;55187;49.496;6.010;2022-10-16T06:45:27;97338.66;;;10.82;100.00
55079;BME280;55187;49.496;6.010;2022-10-16T06:47:53;97336.09;;;10.96;100.00
55079;BME280;55187;49.496;6.010;2022-10-16T06:50:20;97339.75;;;10.95;100.00
55079;BME280;55187;49.496;6.010;2022-10-16T06:52:47;97361.75;;;10.95;100.00
55079;BME280;55187;49.496;6.010;2022-10-16T06:55:13;97356.75;;;11.07;100.00
55079;BME280;55187;49.496;6.010;2022-10-16T06:57:41;97355.72;;;11.08;100.00
55079;BME280;55187;49.496;6.010;2022-10-16T07:00:08;97357.19;;;11.17;100.00
55079;BME280;55187;49.496;6.010;2022-10-16T07:02:35;97364.47;;;11.08;100.00
55079;BME280;55187;49.496;6.010;2022-10-16T07:05:01;97361.69;;;11.23;100.00
55079;BME280;55187;49.496;6.010;2022-10-16T07:07:28;97371.94;;;11.33;100.00
55079;BME280;55187;49.496;6.010;2022-10-16T07:09:55;97377.66;;;11.37;100.00
55079;BME280;55187;49.496;6.010;2022-10-16T07:12:21;97376.88;;;11.49;100.00
55079;BME280;55187;49.496;6.010;2022-10-16T07:14:47;97384.81;;;11.43;100.00
55079;BME280;55187;49.496;6.010;2022-10-16T07:17:14;97391.31;;;11.40;100.00
55079;BME280;55187;49.496;6.010;2022-10-16T07:19:40;97397.69;;;11.46;100.00
55079;BME280;55187;49.496;6.010;2022-10-16T07:22:06;97404.19;;;11.50;100.00
55079;BME280;55187;49.496;6.010;2022-10-16T07:24:33;97401.38;;;11.51;100.00
55079;BME280;55187;49.496;6.010;2022-10-16T07:26:59;97405.84;;;11.51;100.00
55079;BME280;55187;49.496;6.010;2022-10-16T07:29:25;97412.75;;;11.45;100.00
55079;BME280;55187;49.496;6.010;2022-10-16T07:31:52;97410.31;;;11.44;100.00
55079;BME280;55187;49.496;6.010;2022-10-16T07:34:20;97413.16;;;11.42;100.00
55079;BME280;55187;49.496;6.010;2022-10-16T07:36:51;97419.47;;;11.41;100.00
55079;BME280;55187;49.496;6.010;2022-10-16T07:39:17;97425.13;;;11.38;100.00
55079;BME280;55187;49.496;6.010;2022-10-16T07:41:44;97429.66;;;11.44;100.00
55079;BME280;55187;49.496;6.010;2022-10-16T07:44:10;97431.25;;;11.39;100.00
55079;BME280;55187;49.496;6.010;2022-10-16T07:46:37;97437.84;;;11.49;100.00
55079;BME280;55187;49.496;6.010;2022-10-16T07:49:03;97441.13;;;11.51;100.00
55079;BME280;55187;49.496;6.010;2022-10-16T07:51:29;97434.59;;;11.54;100.00
55079;BME280;55187;49.496;6.010;2022-10-16T07:53:56;97443.81;;;11.58;100.00
55079;BME280;55187;49.496;6.010;2022-10-16T07:56:23;97443.97;;;11.57;100.00
55079;BME280;55187;49.496;6.010;2022-10-16T07:58:50;97446.84;;;11.55;100.00
55079;BME280;55187;49.496;6.010;2022-10-16T08:01:17;97447.63;;;11.49;100.00
55079;BME280;55187;49.496;6.010;2022-10-16T08:03:49;97453.13;;;11.47;100.00
55079;BME280;55187;49.496;6.010;2022-10-16T08:06:17;97461.13;;;11.61;100.00
55079;BME280;55187;49.496;6.010;2022-10-16T08:08:43;97464.59;;;11.61;100.00
55079;BME280;55187;49.496;6.010;2022-10-16T08:11:10;97469.28;;;11.59;100.00
55079;BME280;55187;49.496;6.010;2022-10-16T08:13:36;97471.31;;;11.57;100.00
55079;BME280;55187;49.496;6.010;2022-10-16T08:16:03;97478.44;;;11.57;100.00
55079;BME280;55187;49.496;6.010;2022-10-16T08:18:38;97471.81;;;11.74;100.00
55079;BME280;55187;49.496;6.010;2022-10-16T08:21:11;97482.19;;;11.69;100.00
55079;BME280;55187;49.496;6.010;2022-10-16T08:23:38;97481.19;;;11.76;100.00
55079;BME280;55187;49.496;6.010;2022-10-16T08:26:06;97485.03;;;11.67;100.00
55079;BME280;55187;49.496;6.010;2022-10-16T08:28:34;97487.53;;;11.82;100.00
55079;BME280;55187;49.496;6.010;2022-10-16T08:31:10;97490.06;;;11.90;100.00
55079;BME280;55187;49.496;6.010;2022-10-16T08:33:38;97498.47;;;11.94;100.00
55079;BME280;55187;49.496;6.010;2022-10-16T08:36:05;97492.56;;;11.99;100.00
55079;BME280;55187;49.496;6.010;2022-10-16T08:38:33;97490.06;;;11.90;100.00
55079;BME280;55187;49.496;6.010;2022-10-16T08:41:22;97489.19;;;11.83;100.00
55079;BME280;55187;49.496;6.010;2022-10-16T08:46:56;97494.16;;;11.93;100.00
55079;BME280;55187;49.496;6.010;2022-10-16T08:49:30;97494.59;;;11.96;100.00
55079;BME280;55187;49.496;6.010;2022-10-16T08:51:57;97500.53;;;12.12;100.00
55079;BME280;55187;49.496;6.010;2022-10-16T08:54:37;97510.00;;;12.34;100.00
55079;BME280;55187;49.496;6.010;2022-10-16T08:57:22;97514.72;;;12.46;100.00
55079;BME280;55187;49.496;6.010;2022-10-16T08:59:49;97524.72;;;12.44;100.00
55079;BME280;55187;49.496;6.010;2022-10-16T09:02:35;97522.25;;;12.42;100.00
55079;BME280;55187;49.496;6.010;2022-10-16T09:05:21;97524.28;;;12.27;100.00
55079;BME280;55187;49.496;6.010;2022-10-16T09:10:46;97524.00;;;13.16;100.00
55079;BME280;55187;49.496;6.010;2022-10-16T09:16:16;97512.44;;;13.89;100.00
55079;BME280;55187;49.496;6.010;2022-10-16T09:19:02;97510.56;;;14.03;100.00
55079;BME280;55187;49.496;6.010;2022-10-16T09:21:34;97514.25;;;14.02;100.00
55079;BME280;55187;49.496;6.010;2022-10-16T09:24:12;97522.13;;;13.70;100.00
55079;BME280;55187;49.496;6.010;2022-10-16T09:26:39;97520.25;;;13.77;100.00
55079;BME280;55187;49.496;6.010;2022-10-16T09:29:06;97514.09;;;13.90;100.00
55079;BME280;55187;49.496;6.010;2022-10-16T09:31:36;97514.09;;;14.35;100.00
55079;BME280;55187;49.496;6.010;2022-10-16T09:34:03;97510.88;;;14.97;100.00
55079;BME280;55187;49.496;6.010;2022-10-16T09:36:40;97513.28;;;15.05;100.00
55079;BME280;55187;49.496;6.010;2022-10-16T09:39:09;97518.91;;;14.90;100.00
55079;BME280;55187;49.496;6.010;2022-10-16T09:41:40;97512.69;;;15.03;100.00
55079;BME280;55187;49.496;6.010;2022-10-16T09:47:12;97513.75;;;15.45;100.00
55079;BME280;55187;49.496;6.010;2022-10-16T09:49:54;97519.31;;;15.19;100.00
55079;BME280;55187;49.496;6.010;2022-10-16T09:52:26;97520.63;;;15.35;100.00
55079;BME280;55187;49.496;6.010;2022-10-16T09:58:35;97516.72;;;15.12;100.00
55079;BME280;55187;49.496;6.010;2022-10-16T10:01:03;97521.84;;;14.43;100.00
55079;BME280;55187;49.496;6.010;2022-10-16T10:03:36;97512.09;;;14.24;100.00
55079;BME280;55187;49.496;6.010;2022-10-16T10:06:21;97504.28;;;14.36;100.00
55079;BME280;55187;49.496;6.010;2022-10-16T10:09:02;97517.34;;;14.37;100.00
55079;BME280;55187;49.496;6.010;2022-10-16T10:11:46;97517.41;;;14.24;100.00
55079;BME280;55187;49.496;6.010;2022-10-16T10:14:21;97525.97;;;14.39;100.00
55079;BME280;55187;49.496;6.010;2022-10-16T10:16:49;97529.50;;;14.26;100.00
55079;BME280;55187;49.496;6.010;2022-10-16T10:19:21;97540.81;;;14.15;100.00
55079;BME280;55187;49.496;6.010;2022-10-16T10:21:49;97538.19;;;14.09;100.00
55079;BME280;55187;49.496;6.010;2022-10-16T10:24:18;97534.22;;;14.24;100.00
55079;BME280;55187;49.496;6.010;2022-10-16T10:27:00;97538.22;;;13.95;100.00
55079;BME280;55187;49.496;6.010;2022-10-16T10:29:42;97533.47;;;14.11;100.00
55079;BME280;55187;49.496;6.010;2022-10-16T10:32:28;97547.78;;;14.10;100.00
55079;BME280;55187;49.496;6.010;2022-10-16T10:35:22;97536.53;;;14.07;100.00
55079;BME280;55187;49.496;6.010;2022-10-16T10:40:52;97542.00;;;14.19;100.00
55079;BME280;55187;49.496;6.010;2022-10-16T10:46:34;97549.63;;;14.09;100.00
55079;BME280;55187;49.496;6.010;2022-10-16T11:00:30;97550.69;;;14.46;100.00
55079;BME280;55187;49.496;6.010;2022-10-16T11:03:31;97543.44;;;14.67;100.00
55079;BME280;55187;49.496;6.010;2022-10-16T11:08:40;97540.88;;;14.85;100.00
55079;BME280;55187;49.496;6.010;2022-10-16T11:11:18;97526.22;;;15.01;100.00
55079;BME280;55187;49.496;6.010;2022-10-16T11:14:09;97544.97;;;15.13;100.00
55079;BME280;55187;49.496;6.010;2022-10-16T11:16:56;97524.31;;;15.34;100.00
55079;BME280;55187;49.496;6.010;2022-10-16T11:19:40;97526.06;;;15.46;100.00
55079;BME280;55187;49.496;6.010;2022-10-16T11:22:31;97520.06;;;15.51;100.00
55079;BME280;55187;49.496;6.010;2022-10-16T11:27:51;97521.38;;;15.42;100.00
55079;BME280;55187;49.496;6.010;2022-10-16T11:30:24;97522.66;;;15.58;100.00
55079;BME280;55187;49.496;6.010;2022-10-16T11:37:59;97517.75;;;15.55;100.00
55079;BME280;55187;49.496;6.010;2022-10-16T11:40:37;97524.66;;;15.44;100.00
55079;BME280;55187;49.496;6.010;2022-10-16T11:43:25;97529.78;;;15.39;100.00
55079;BME280;55187;49.496;6.010;2022-10-16T11:45:56;97535.66;;;15.47;100.00
55079;BME280;55187;49.496;6.010;2022-10-16T11:48:41;97539.66;;;15.38;100.00
55079;BME280;55187;49.496;6.010;2022-10-16T11:51:25;97533.63;;;15.24;100.00
55079;BME280;55187;49.496;6.010;2022-10-16T11:54:04;97530.91;;;15.06;100.00
55079;BME280;55187;49.496;6.010;2022-10-16T11:56:37;97533.19;;;15.02;100.00
55079;BME280;55187;49.496;6.010;2022-10-16T12:01:59;97542.91;;;14.90;100.00
55079;BME280;55187;49.496;6.010;2022-10-16T12:04:41;97536.09;;;14.62;100.00
55079;BME280;55187;49.496;6.010;2022-10-16T12:07:19;97541.31;;;14.82;100.00
55079;BME280;55187;49.496;6.010;2022-10-16T12:09:46;97535.94;;;14.89;100.00
55079;BME280;55187;49.496;6.010;2022-10-16T12:12:37;97541.19;;;15.02;100.00
55079;BME280;55187;49.496;6.010;2022-10-16T12:15:27;97541.63;;;15.24;100.00
55079;BME280;55187;49.496;6.010;2022-10-16T12:17:55;97537.59;;;15.15;100.00
55079;BME280;55187;49.496;6.010;2022-10-16T12:20:25;97538.59;;;15.21;100.00
55079;BME280;55187;49.496;6.010;2022-10-16T12:23:01;97542.72;;;15.42;100.00
55079;BME280;55187;49.496;6.010;2022-10-16T12:25:33;97529.22;;;15.55;100.00
55079;BME280;55187;49.496;6.010;2022-10-16T12:28:19;97525.09;;;15.59;100.00
55079;BME280;55187;49.496;6.010;2022-10-16T12:31:03;97522.28;;;15.54;100.00
55079;BME280;55187;49.496;6.010;2022-10-16T12:33:36;97519.56;;;15.36;100.00
55079;BME280;55187;49.496;6.010;2022-10-16T12:36:08;97525.09;;;15.59;100.00
55079;BME280;55187;49.496;6.010;2022-10-16T12:38:48;97523.31;;;15.53;100.00
55079;BME280;55187;49.496;6.010;2022-10-16T12:41:32;97523.53;;;15.77;100.00
55079;BME280;55187;49.496;6.010;2022-10-16T12:43:59;97519.22;;;15.76;100.00
55079;BME280;55187;49.496;6.010;2022-10-16T12:46:38;97522.72;;;15.51;100.00
55079;BME280;55187;49.496;6.010;2022-10-16T12:49:21;97523.53;;;15.51;100.00
55079;BME280;55187;49.496;6.010;2022-10-16T12:51:48;97525.47;;;15.19;100.00
55079;BME280;55187;49.496;6.010;2022-10-16T12:59:50;97529.88;;;15.50;100.00
55079;BME280;55187;49.496;6.010;2022-10-16T13:02:44;97519.09;;;15.64;100.00
55079;BME280;55187;49.496;6.010;2022-10-16T13:05:26;97529.72;;;15.70;100.00
55079;BME280;55187;49.496;6.010;2022-10-16T13:14:14;97519.91;;;15.64;100.00
55079;BME280;55187;49.496;6.010;2022-10-16T13:17:12;97521.19;;;15.37;100.00
55079;BME280;55187;49.496;6.010;2022-10-16T13:25:35;97517.19;;;15.02;100.00
55079;BME280;55187;49.496;6.010;2022-10-16T13:28:11;97519.03;;;15.02;100.00
55079;BME280;55187;49.496;6.010;2022-10-16T13:30:44;97524.41;;;14.95;100.00
55079;BME280;55187;49.496;6.010;2022-10-16T13:33:32;97522.94;;;14.99;100.00
55079;BME280;55187;49.496;6.010;2022-10-16T13:35:59;97518.88;;;14.97;100.00
55079;BME280;55187;49.496;6.010;2022-10-16T13:38:34;97515.41;;;15.21;100.00
55079;BME280;55187;49.496;6.010;2022-10-16T13:41:05;97516.06;;;15.17;100.00
55079;BME280;55187;49.496;6.010;2022-10-16T13:43:35;97520.63;;;15.09;100.00
55079;BME280;55187;49.496;6.010;2022-10-16T13:46:05;97517.78;;;15.04;100.00
55079;BME280;55187;49.496;6.010;2022-10-16T13:48:33;97518.28;;;15.20;100.00
55079;BME280;55187;49.496;6.010;2022-10-16T13:51:03;97520.34;;;15.18;100.00
55079;BME280;55187;49.496;6.010;2022-10-16T13:53:31;97516.50;;;15.57;100.00
55079;BME280;55187;49.496;6.010;2022-10-16T13:55:58;97514.81;;;15.63;100.00
55079;BME280;55187;49.496;6.010;2022-10-16T13:58:26;97514.13;;;15.92;100.00
55079;BME280;55187;49.496;6.010;2022-10-16T14:00:54;97510.22;;;15.70;100.00
55079;BME280;55187;49.496;6.010;2022-10-16T14:03:23;97508.19;;;15.72;100.00
55079;BME280;55187;49.496;6.010;2022-10-16T14:05:52;97511.97;;;15.83;100.00
55079;BME280;55187;49.496;6.010;2022-10-16T14:08:21;97507.88;;;15.55;100.00
55079;BME280;55187;49.496;6.010;2022-10-16T14:10:50;97513.81;;;15.57;100.00
55079;BME280;55187;49.496;6.010;2022-10-16T14:13:20;97504.31;;;15.43;100.00
55079;BME280;55187;49.496;6.010;2022-10-16T14:15:51;97508.84;;;15.42;100.00
55079;BME280;55187;49.496;6.010;2022-10-16T14:18:21;97504.94;;;15.63;100.00